createdAt,value
2019-04-14T00:01:26.807Z,32.07
2019-04-14T00:04:05.925Z,34.90
2019-04-14T00:06:35.207Z,30.67
2019-04-14T00:09:05.639Z,33.20
2019-04-14T00:11:36.584Z,33.20
2019-04-14T00:14:05.291Z,30.70
2019-04-14T00:16:33.883Z,31.47
2019-04-14T00:19:02.355Z,30.63
2019-04-14T00:21:30.811Z,31.77
2019-04-14T00:23:59.211Z,30.97
2019-04-14T00:26:35.593Z,29.93
2019-04-14T00:29:04.776Z,31.17
2019-04-14T00:31:33.247Z,29.80
2019-04-14T00:34:15.943Z,30.30
2019-04-14T00:36:46.093Z,30.23
2019-04-14T00:39:25.165Z,30.17
2019-04-14T00:42:03.106Z,32.40
2019-04-14T00:44:38.769Z,29.20
2019-04-14T00:47:09.342Z,31.67
2019-04-14T00:49:37.847Z,29.63
2019-04-14T00:52:06.259Z,29.70
2019-04-14T00:54:34.737Z,30.13
2019-04-14T00:57:03.470Z,29.07
2019-04-14T00:59:31.892Z,29.23
2019-04-14T01:02:01.338Z,30.43
2019-04-14T01:04:29.884Z,27.73
2019-04-14T01:06:58.290Z,28.40
2019-04-14T01:09:26.682Z,27.67
2019-04-14T01:11:55.331Z,29.30
2019-04-14T01:14:25.479Z,28.27
2019-04-14T01:16:53.979Z,27.53
2019-04-14T01:19:22.679Z,27.97
2019-04-14T01:21:52.380Z,27.80
2019-04-14T01:24:20.968Z,29.00
2019-04-14T01:26:50.571Z,29.20
2019-04-14T01:29:19.161Z,27.97
2019-04-14T01:31:47.570Z,26.63
2019-04-14T01:34:17.229Z,25.80
2019-04-14T01:36:45.760Z,28.10
2019-04-14T01:39:15.377Z,28.43
2019-04-14T01:41:43.846Z,28.33
2019-04-14T01:44:13.254Z,27.97
2019-04-14T01:46:41.937Z,29.83
2019-04-14T01:49:11.436Z,25.30
2019-04-14T01:51:44.573Z,25.57
2019-04-14T01:54:30.831Z,28.07
2019-04-14T01:57:17.567Z,24.90
2019-04-14T01:59:46.155Z,25.90
2019-04-14T02:02:16.301Z,27.90
2019-04-14T02:04:44.762Z,25.80
2019-04-14T02:07:14.376Z,25.60
2019-04-14T02:09:42.945Z,25.70
2019-04-14T02:12:12.666Z,26.53
2019-04-14T02:14:41.305Z,27.70
2019-04-14T02:17:11.073Z,25.60
2019-04-14T02:19:39.697Z,26.37
2019-04-14T02:22:09.451Z,26.40
2019-04-14T02:24:37.985Z,25.37
2019-04-14T02:27:07.639Z,25.23
2019-04-14T02:29:36.265Z,26.00
2019-04-14T02:32:37.278Z,26.93
2019-04-14T02:35:02.974Z,26.70
2019-04-14T02:40:18.599Z,25.00
2019-04-14T02:42:34.390Z,27.30
2019-04-14T02:45:01.445Z,26.40
2019-04-14T02:50:08.696Z,26.20
2019-04-14T02:54:58.772Z,29.00
2019-04-14T02:57:34.011Z,28.40
2019-04-14T03:00:12.053Z,29.60
2019-04-14T03:02:44.262Z,30.20
2019-04-14T03:07:36.149Z,30.77
2019-04-14T03:12:31.195Z,32.10
2019-04-14T03:15:01.291Z,30.90
2019-04-14T03:18:13.932Z,30.80
2019-04-14T03:20:39.586Z,29.50
2019-04-14T03:23:23.717Z,32.00
2019-04-14T03:25:49.183Z,30.07
2019-04-14T03:34:06.706Z,30.57
2019-04-14T03:38:38.482Z,28.50
2019-04-14T03:41:12.325Z,28.50
2019-04-14T03:43:43.178Z,30.13
2019-04-14T03:46:09.126Z,30.30
2019-04-14T03:48:56.072Z,30.27
2019-04-14T03:51:10.401Z,26.33
2019-04-14T03:53:45.839Z,30.00
2019-04-14T03:55:55.717Z,31.37
2019-04-14T03:58:20.349Z,31.03
2019-04-14T04:00:49.250Z,29.97
2019-04-14T04:03:17.857Z,31.77
2019-04-14T04:05:46.292Z,31.10
2019-04-14T04:08:15.717Z,32.40
2019-04-14T04:10:46.512Z,32.73
2019-04-14T04:13:15.107Z,33.60
2019-04-14T04:15:43.904Z,32.07
2019-04-14T04:18:17.766Z,33.60
2019-04-14T04:20:50.826Z,33.20
2019-04-14T04:23:27.072Z,31.70
2019-04-14T04:26:06.242Z,32.73
2019-04-14T04:28:54.012Z,34.13
2019-04-14T04:31:26.855Z,33.63
2019-04-14T04:37:01.841Z,34.40
2019-04-14T04:39:43.893Z,36.93
2019-04-14T04:42:13.237Z,35.30
2019-04-14T04:44:42.158Z,35.77
2019-04-14T04:47:10.774Z,36.27
2019-04-14T04:49:40.338Z,35.53
2019-04-14T04:52:11.433Z,35.40
2019-04-14T04:54:39.078Z,36.40
2019-04-14T04:57:07.493Z,36.40
2019-04-14T04:59:36.712Z,38.60
2019-04-14T05:02:05.287Z,37.23
2019-04-14T05:04:33.706Z,37.43
2019-04-14T05:07:03.561Z,40.90
2019-04-14T05:09:36.791Z,38.23
2019-04-14T05:12:13.443Z,38.70
2019-04-14T05:14:43.542Z,37.00
2019-04-14T05:17:13.443Z,38.27
2019-04-14T05:19:43.502Z,39.70
2019-04-14T05:22:14.832Z,39.73
2019-04-14T05:24:42.132Z,38.67
2019-04-14T05:27:10.554Z,38.17
2019-04-14T05:29:38.963Z,39.70
2019-04-14T05:32:07.369Z,36.50
2019-04-14T05:34:36.707Z,35.17
2019-04-14T05:37:05.358Z,36.37
2019-04-14T05:39:33.752Z,39.33
2019-04-14T05:42:09.705Z,37.80
2019-04-14T05:44:33.933Z,39.37
2019-04-14T05:47:02.517Z,38.13
2019-04-14T05:49:40.974Z,36.83
2019-04-14T05:52:01.286Z,35.93
2019-04-14T05:54:29.831Z,37.10
2019-04-14T05:56:58.243Z,36.50
2019-04-14T05:59:26.673Z,37.77
2019-04-14T06:01:55.102Z,36.00
2019-04-14T06:04:24.328Z,35.87
2019-04-14T06:06:52.856Z,36.87
2019-04-14T06:09:21.238Z,36.17
2019-04-14T06:11:49.655Z,37.20
2019-04-14T06:14:18.066Z,36.67
2019-04-14T06:16:46.472Z,37.17
2019-04-14T06:19:14.862Z,34.33
2019-04-14T06:21:43.349Z,39.10
2019-04-14T06:24:11.746Z,36.50
2019-04-14T06:26:40.163Z,33.40
2019-04-14T06:29:08.577Z,36.33
2019-04-14T06:31:41.326Z,36.13
2019-04-14T06:34:14.275Z,38.10
2019-04-14T06:36:53.368Z,36.70
2019-04-14T06:39:26.366Z,33.10
2019-04-14T06:41:54.851Z,35.77
2019-04-14T06:44:23.251Z,36.90
2019-04-14T06:46:51.662Z,37.43
2019-04-14T06:49:20.055Z,35.40
2019-04-14T06:51:49.139Z,37.20
2019-04-14T06:54:17.532Z,34.80
2019-04-14T06:56:45.936Z,35.50
2019-04-14T06:59:14.338Z,37.60
2019-04-14T07:01:42.731Z,36.60
2019-04-14T07:04:11.138Z,35.87
2019-04-14T07:06:39.530Z,36.60
2019-04-14T07:09:07.977Z,34.40
2019-04-14T07:11:36.423Z,34.90
2019-04-14T07:14:04.971Z,34.77
2019-04-14T07:16:33.419Z,35.07
2019-04-14T07:19:01.847Z,35.87
2019-04-14T07:21:30.246Z,36.57
2019-04-14T07:23:58.662Z,36.80
2019-04-14T07:26:27.050Z,37.00
2019-04-14T07:28:56.949Z,36.87
2019-04-14T07:31:27.188Z,33.20
2019-04-14T07:34:03.181Z,35.27
2019-04-14T07:36:33.215Z,36.00
2019-04-14T07:39:05.740Z,37.20
2019-04-14T07:41:35.769Z,36.67
2019-04-14T07:44:14.850Z,34.90
2019-04-14T07:46:49.739Z,34.07
2019-04-14T07:49:37.588Z,34.87
2019-04-14T07:55:01.568Z,34.30
2019-04-14T07:57:47.692Z,35.83
2019-04-14T08:00:33.887Z,34.03
2019-04-14T08:03:06.888Z,34.77
2019-04-14T08:05:36.923Z,34.20
2019-04-14T08:08:05.350Z,34.73
2019-04-14T08:10:33.762Z,33.03
2019-04-14T08:13:02.162Z,32.23
2019-04-14T08:15:30.563Z,33.20
2019-04-14T08:17:58.984Z,36.03
2019-04-14T08:20:28.087Z,35.80
2019-04-14T08:22:57.916Z,34.90
2019-04-14T08:25:26.434Z,34.17
2019-04-14T08:27:54.855Z,31.70
2019-04-14T08:30:23.357Z,36.20
2019-04-14T08:32:51.794Z,35.27
2019-04-14T08:35:20.237Z,34.27
2019-04-14T08:37:48.680Z,34.07
2019-04-14T08:40:17.197Z,35.33
2019-04-14T08:42:47.325Z,34.57
2019-04-14T08:45:17.387Z,33.10
2019-04-14T08:48:04.008Z,34.80
2019-04-14T08:50:39.773Z,31.97
2019-04-14T08:53:05.894Z,33.47
2019-04-14T08:55:52.575Z,32.97
2019-04-14T08:58:22.639Z,34.50
2019-04-14T09:00:52.679Z,32.77
2019-04-14T09:03:38.653Z,34.90
2019-04-14T09:06:11.767Z,33.23
2019-04-14T09:08:58.043Z,33.17
2019-04-14T09:11:44.555Z,33.30
2019-04-14T09:14:12.959Z,32.20
2019-04-14T09:16:41.363Z,32.33
2019-04-14T09:19:09.852Z,32.77
2019-04-14T09:21:38.243Z,34.13
2019-04-14T09:24:06.650Z,34.03
2019-04-14T09:26:35.046Z,32.53
2019-04-14T09:29:03.471Z,32.07
2019-04-14T09:31:31.889Z,34.00
2019-04-14T09:34:00.323Z,33.60
2019-04-14T09:36:28.713Z,33.80
2019-04-14T09:38:57.145Z,35.87
2019-04-14T09:41:25.555Z,35.97
2019-04-14T09:43:53.955Z,33.70
2019-04-14T09:46:22.406Z,33.80
2019-04-14T09:48:50.846Z,34.47
2019-04-14T09:51:19.321Z,35.60
2019-04-14T09:53:47.864Z,33.90
2019-04-14T09:56:16.337Z,33.70
2019-04-14T09:58:44.962Z,33.53
2019-04-14T10:01:13.541Z,32.63
2019-04-14T10:03:42.150Z,31.83
2019-04-14T10:06:10.729Z,34.07
2019-04-14T10:08:39.242Z,30.63
2019-04-14T10:11:07.700Z,33.33
2019-04-14T10:13:36.251Z,31.17
2019-04-14T10:16:04.682Z,32.67
2019-04-14T10:18:33.326Z,31.50
2019-04-14T10:21:01.710Z,30.07
2019-04-14T10:23:30.135Z,31.30
2019-04-14T10:25:58.526Z,31.33
2019-04-14T10:28:26.937Z,33.40
2019-04-14T10:30:55.349Z,32.00
2019-04-14T10:33:23.772Z,31.43
2019-04-14T10:35:52.158Z,32.27
2019-04-14T10:38:20.569Z,30.37
2019-04-14T10:40:48.980Z,32.93
2019-04-14T10:43:17.387Z,30.33
2019-04-14T10:45:45.803Z,29.47
2019-04-14T10:48:14.196Z,29.67
2019-04-14T10:50:42.612Z,32.20
2019-04-14T10:53:11.001Z,30.80
2019-04-14T10:55:39.475Z,33.07
2019-04-14T10:58:07.910Z,31.50
2019-04-14T11:00:36.340Z,29.73
2019-04-14T11:03:04.939Z,31.93
2019-04-14T11:05:37.739Z,30.10
2019-04-14T11:08:06.139Z,30.40
2019-04-14T11:10:34.573Z,30.47
2019-04-14T11:13:02.975Z,29.53
2019-04-14T11:15:31.393Z,30.30
2019-04-14T11:17:59.804Z,30.50
2019-04-14T11:20:28.206Z,30.50
2019-04-14T11:23:03.104Z,30.90
2019-04-14T11:25:26.804Z,30.37
2019-04-14T11:27:55.224Z,30.60
2019-04-14T11:30:24.514Z,32.00
2019-04-14T11:32:57.218Z,30.83
2019-04-14T11:35:27.270Z,30.50
2019-04-14T11:38:13.708Z,29.10
2019-04-14T11:40:43.763Z,30.30
2019-04-14T11:43:12.163Z,30.17
2019-04-14T11:45:40.584Z,32.40
2019-04-14T11:48:09.065Z,30.73
2019-04-14T11:50:37.469Z,31.07
2019-04-14T11:53:05.879Z,32.47
2019-04-14T11:55:34.417Z,33.53
2019-04-14T11:58:02.955Z,31.93
2019-04-14T12:00:41.934Z,32.60
2019-04-14T12:03:28.651Z,31.63
2019-04-14T12:06:15.173Z,33.47
2019-04-14T12:08:45.677Z,32.17
2019-04-14T12:11:14.193Z,33.17
2019-04-14T12:13:42.600Z,30.83
2019-04-14T12:16:11.015Z,32.63
2019-04-14T12:18:39.427Z,32.07
2019-04-14T12:21:07.837Z,31.40
2019-04-14T12:23:36.230Z,31.13
2019-04-14T12:26:05.975Z,30.27
2019-04-14T12:28:34.483Z,31.20
2019-04-14T12:31:04.084Z,31.83
2019-04-14T12:33:32.611Z,33.40
2019-04-14T12:36:01.026Z,32.07
2019-04-14T12:38:29.499Z,31.77
2019-04-14T12:41:00.215Z,32.87
2019-04-14T12:43:44.923Z,29.43
2019-04-14T12:46:20.822Z,29.83
2019-04-14T12:48:50.877Z,32.23
2019-04-14T12:51:26.907Z,29.93
2019-04-14T12:53:55.302Z,30.67
2019-04-14T12:56:25.354Z,31.30
2019-04-14T12:59:01.350Z,31.90
2019-04-14T13:01:37.410Z,30.60
2019-04-14T13:04:05.819Z,30.97
2019-04-14T13:06:34.218Z,31.53
2019-04-14T13:09:02.643Z,31.77
2019-04-14T13:11:31.050Z,30.63
2019-04-14T13:13:59.455Z,31.70
2019-04-14T13:16:27.854Z,30.83
2019-04-14T13:18:56.245Z,29.83
2019-04-14T13:21:24.663Z,31.27
2019-04-14T13:23:53.071Z,29.67
2019-04-14T13:26:21.492Z,28.23
2019-04-14T13:28:49.896Z,28.10
2019-04-14T13:31:18.355Z,27.00
2019-04-14T13:33:46.943Z,27.70
2019-04-14T13:36:15.402Z,25.30
2019-04-14T13:38:43.833Z,24.10
2019-04-14T13:41:12.240Z,23.40
2019-04-14T13:43:40.651Z,21.30
2019-04-14T13:46:09.072Z,20.23
2019-04-14T13:48:37.477Z,20.77
2019-04-14T13:51:05.887Z,20.93
2019-04-14T13:53:34.291Z,19.47
2019-04-14T13:56:02.693Z,20.10
2019-04-14T13:58:31.089Z,19.80
2019-04-14T14:00:59.515Z,18.73
2019-04-14T14:03:27.929Z,18.03
2019-04-14T14:05:56.368Z,18.73
2019-04-14T14:08:24.853Z,19.10
2019-04-14T14:10:54.908Z,19.33
2019-04-14T14:13:28.032Z,18.20
2019-04-14T14:16:16.181Z,19.33
2019-04-14T14:18:46.140Z,18.20
2019-04-14T14:21:16.193Z,18.67
2019-04-14T14:23:46.222Z,18.33
2019-04-14T14:26:22.284Z,20.73
2019-04-14T14:28:50.692Z,20.13
2019-04-14T14:31:20.480Z,19.07
2019-04-14T14:33:48.875Z,21.07
2019-04-14T14:36:17.282Z,18.60
2019-04-14T14:38:45.691Z,19.20
2019-04-14T14:41:15.746Z,20.30
2019-04-14T14:43:44.164Z,21.30
2019-04-14T14:46:14.281Z,19.80
2019-04-14T14:48:44.314Z,21.20
2019-04-14T14:51:14.357Z,18.13
2019-04-14T14:53:42.770Z,20.40
2019-04-14T14:56:11.184Z,18.70
2019-04-14T14:58:39.686Z,20.33
2019-04-14T15:01:08.136Z,20.10
2019-04-14T15:03:36.522Z,18.00
2019-04-14T15:06:05.090Z,19.87
2019-04-14T15:08:33.480Z,18.87
2019-04-14T15:11:04.163Z,19.60
2019-04-14T15:13:32.111Z,17.40
2019-04-14T15:16:00.606Z,18.50
2019-04-14T15:18:29.011Z,18.03
2019-04-14T15:20:57.603Z,18.40
2019-04-14T15:23:25.999Z,19.03
2019-04-14T15:25:54.427Z,19.40
2019-04-14T15:28:22.833Z,19.23
2019-04-14T15:30:51.238Z,18.47
2019-04-14T15:33:19.639Z,18.70
2019-04-14T15:35:48.055Z,19.40
2019-04-14T15:38:16.479Z,19.10
2019-04-14T15:40:44.874Z,19.67
2019-04-14T15:43:13.261Z,18.47
2019-04-14T15:45:41.679Z,18.60
2019-04-14T15:48:10.079Z,17.10
2019-04-14T15:50:38.477Z,19.60
2019-04-14T15:53:06.895Z,17.30
2019-04-14T15:55:35.371Z,17.73
2019-04-14T15:58:11.103Z,18.50
2019-04-14T16:00:41.154Z,17.80
2019-04-14T16:03:17.189Z,17.20
2019-04-14T16:05:53.304Z,17.03
2019-04-14T16:08:26.058Z,16.10
2019-04-14T16:10:58.888Z,15.33
2019-04-14T16:13:43.953Z,15.00
2019-04-14T16:16:29.940Z,15.30
2019-04-14T16:18:59.984Z,14.80
2019-04-14T16:21:28.402Z,15.60
2019-04-14T16:23:56.803Z,14.07
2019-04-14T16:26:41.747Z,14.70
2019-04-14T16:29:11.791Z,14.50
2019-04-14T16:31:57.909Z,15.00
2019-04-14T16:34:30.915Z,14.20
2019-04-14T16:36:59.400Z,13.60
2019-04-14T16:39:27.812Z,14.17
2019-04-14T16:41:56.222Z,14.07
2019-04-14T16:44:24.632Z,15.10
2019-04-14T16:46:54.028Z,13.57
2019-04-14T16:49:22.431Z,14.50
2019-04-14T16:51:52.557Z,12.83
2019-04-14T16:54:31.409Z,14.70
2019-04-14T16:57:10.266Z,14.20
2019-04-14T16:59:38.826Z,17.63
2019-04-14T17:02:11.136Z,16.80
2019-04-14T17:04:37.367Z,15.93
2019-04-14T17:07:05.793Z,14.80
2019-04-14T17:09:34.186Z,14.10
2019-04-14T17:12:02.604Z,15.03
2019-04-14T17:14:38.323Z,14.07
2019-04-14T17:17:11.116Z,18.47
2019-04-14T17:19:47.130Z,16.83
2019-04-14T17:22:19.639Z,15.00
2019-04-14T17:25:05.820Z,15.10
2019-04-14T17:27:48.203Z,14.70
2019-04-14T17:30:18.234Z,14.67
2019-04-14T17:33:00.533Z,14.80
2019-04-14T17:35:30.586Z,14.90
2019-04-14T17:38:00.653Z,15.40
2019-04-14T17:40:39.198Z,14.00
2019-04-14T17:43:24.541Z,16.00
2019-04-14T17:46:00.373Z,15.27
2019-04-14T17:48:47.074Z,17.17
2019-04-14T17:51:17.152Z,14.97
2019-04-14T17:53:52.994Z,16.27
2019-04-14T17:56:25.979Z,16.87
2019-04-14T17:58:58.833Z,16.40
2019-04-14T18:01:37.853Z,15.77
2019-04-14T18:04:07.898Z,16.10
2019-04-14T18:06:37.953Z,17.10
2019-04-14T18:09:11.227Z,16.00
2019-04-14T18:15:06.021Z,14.83
2019-04-14T18:17:52.195Z,15.27
2019-04-14T18:20:22.242Z,16.77
2019-04-14T18:22:50.671Z,17.87
2019-04-14T18:25:19.070Z,16.87
2019-04-14T18:28:05.619Z,16.90
2019-04-14T18:30:35.674Z,34.87
2019-04-14T18:33:22.238Z,20.37
2019-04-14T18:35:52.276Z,16.80
2019-04-14T18:38:24.858Z,17.60
2019-04-14T18:40:54.934Z,17.17
2019-04-14T18:43:25.013Z,17.80
2019-04-14T18:45:55.050Z,16.77
2019-04-14T18:48:27.874Z,17.20
2019-04-14T18:51:04.159Z,17.33
2019-04-14T18:53:46.420Z,19.20
2019-04-14T18:56:25.476Z,17.47
2019-04-14T18:59:11.486Z,18.10
2019-04-14T19:01:47.650Z,19.03
2019-04-14T19:04:16.056Z,17.90
2019-04-14T19:06:44.599Z,16.90
2019-04-14T19:09:13.013Z,19.40
2019-04-14T19:11:45.803Z,16.73
2019-04-14T19:14:15.851Z,18.60
2019-04-14T19:16:45.919Z,18.23
2019-04-14T19:19:15.195Z,19.20
2019-04-14T19:21:43.593Z,18.90
2019-04-14T19:24:11.990Z,18.97
2019-04-14T19:26:40.398Z,17.03
2019-04-14T19:29:08.804Z,18.87
2019-04-14T19:31:37.223Z,18.27
2019-04-14T19:34:05.613Z,17.57
2019-04-14T19:36:34.034Z,19.23
2019-04-14T19:39:04.076Z,18.97
2019-04-14T19:41:32.495Z,20.97
2019-04-14T19:44:00.935Z,19.03
2019-04-14T19:46:29.399Z,19.03
2019-04-14T19:48:57.800Z,18.13
2019-04-14T19:51:26.219Z,19.70
2019-04-14T19:53:54.624Z,17.70
2019-04-14T19:56:23.053Z,20.57
2019-04-14T19:58:51.452Z,19.30
2019-04-14T20:01:19.876Z,20.77
2019-04-14T20:03:48.279Z,19.33
2019-04-14T20:06:16.667Z,20.50
2019-04-14T20:08:45.087Z,19.33
2019-04-14T20:11:13.497Z,21.40
2019-04-14T20:13:46.417Z,20.17
2019-04-14T20:16:31.525Z,20.13
2019-04-14T20:19:10.344Z,19.17
2019-04-14T20:21:36.299Z,19.37
2019-04-14T20:24:12.423Z,20.10
2019-04-14T20:29:35.884Z,19.63
2019-04-14T20:32:17.668Z,18.77
2019-04-14T20:34:46.068Z,20.30
2019-04-14T20:37:14.839Z,19.63
2019-04-14T20:39:43.229Z,18.27
2019-04-14T20:42:11.889Z,19.47
2019-04-14T20:44:40.302Z,17.00
2019-04-14T20:47:09.578Z,20.37
2019-04-14T20:49:38.313Z,21.27
2019-04-14T20:52:07.657Z,19.53
2019-04-14T20:54:36.352Z,19.20
2019-04-14T20:57:04.824Z,18.27
2019-04-14T20:59:33.213Z,18.80
2019-04-14T21:02:06.006Z,17.40
2019-04-14T21:04:36.119Z,18.37
2019-04-14T21:07:12.235Z,17.80
2019-04-14T21:09:58.720Z,17.70
2019-04-14T21:12:37.560Z,17.13
2019-04-14T21:15:24.921Z,19.20
2019-04-14T21:18:01.028Z,19.20
2019-04-14T21:20:33.804Z,17.23
2019-04-14T21:23:10.061Z,16.70
2019-04-14T21:25:40.187Z,18.57
2019-04-14T21:28:16.253Z,19.90
2019-04-14T21:30:46.293Z,19.40
2019-04-14T21:33:32.301Z,18.43
2019-04-14T21:36:05.252Z,17.40
2019-04-14T21:38:50.491Z,16.83
2019-04-14T21:41:26.527Z,17.60
2019-04-14T21:43:55.007Z,17.17
2019-04-14T21:46:23.700Z,16.00
2019-04-14T21:48:52.107Z,17.20
2019-04-14T21:51:22.141Z,17.60
2019-04-14T21:53:50.552Z,16.00
2019-04-14T21:56:19.024Z,15.77
2019-04-14T21:58:57.913Z,19.50
2019-04-14T22:01:52.237Z,18.67
2019-04-14T22:04:31.224Z,17.67
2019-04-14T22:07:01.259Z,15.50
2019-04-14T22:09:31.373Z,17.23
2019-04-14T22:12:01.424Z,17.77
2019-04-14T22:14:29.843Z,17.70
2019-04-14T22:16:58.247Z,16.77
2019-04-14T22:19:26.646Z,18.20
2019-04-14T22:21:55.045Z,17.97
2019-04-14T22:24:24.393Z,16.60
2019-04-14T22:26:52.800Z,16.80
2019-04-14T22:29:21.237Z,16.17
2019-04-14T22:31:49.631Z,17.77
2019-04-14T22:34:18.116Z,17.20
2019-04-14T22:36:46.508Z,16.60
2019-04-14T22:39:16.553Z,18.23
2019-04-14T22:41:44.961Z,15.10
2019-04-14T22:44:13.537Z,18.00
2019-04-14T22:46:41.934Z,16.23
2019-04-14T22:49:10.348Z,15.50
2019-04-14T22:51:38.769Z,15.53
2019-04-14T22:54:07.183Z,16.10
2019-04-14T22:56:39.591Z,15.70
2019-04-14T22:59:05.778Z,16.70
2019-04-14T23:01:35.823Z,14.87
2019-04-14T23:04:05.863Z,14.87
2019-04-14T23:06:54.190Z,14.03
2019-04-14T23:09:24.243Z,14.03
2019-04-14T23:11:54.365Z,16.93
2019-04-14T23:14:26.953Z,16.17
2019-04-14T23:17:15.049Z,16.47
2019-04-14T23:19:51.239Z,15.67
2019-04-14T23:22:21.279Z,17.10
2019-04-14T23:24:50.472Z,16.20
2019-04-14T23:27:18.861Z,15.93
2019-04-14T23:29:47.273Z,15.87
2019-04-14T23:32:15.667Z,16.23
2019-04-14T23:34:44.073Z,16.60
2019-04-14T23:37:12.473Z,16.53
2019-04-14T23:50:13.150Z,17.17
2019-04-14T23:52:41.543Z,16.80
2019-04-14T23:55:10.310Z,16.93
2019-04-14T23:57:38.713Z,15.90
